Time;durP1;ratioP1;P1;durP2;ratioP2;P2;SDS_P1;SDS_P2;PMS_P1;PMS_P2;Temp;Humidity;BMP_temperature;BMP_pressure;BME280_temperature;BME280_humidity;BME280_pressure;Samples;Min_cycle;Max_cycle;Signal;HPM_P1;HPM_P2
2022/11/22 00:01:00;;;;;;;5.13;3.90;;;;;;;-140.72;100.00;53218.81;5070239;28;20099;-66
2022/11/22 00:03:25;;;;;;;7.72;3.03;;;;;;;-140.72;100.00;53226.94;5056702;28;20032;-69
2022/11/22 00:05:50;;;;;;;6.93;4.03;;;;;;;-140.72;100.00;53194.47;5081530;28;20470;-68
2022/11/22 00:08:16;;;;;;;7.78;4.15;;;;;;;-140.72;100.00;53287.84;5071385;28;20025;-66
2022/11/22 00:10:41;;;;;;;6.00;3.78;;;;;;;-140.72;100.00;53218.81;5058630;28;20102;-67
2022/11/22 00:13:07;;;;;;;5.70;3.72;;;;;;;-140.72;100.00;53202.59;5063223;28;20072;-66
2022/11/22 00:15:32;;;;;;;5.60;3.17;;;;;;;-140.72;100.00;53231.00;5056951;28;20029;-66
2022/11/22 00:17:58;;;;;;;4.82;3.13;;;;;;;-140.72;100.00;53216.78;5059327;28;20049;-68
2022/11/22 00:20:23;;;;;;;7.00;3.78;;;;;;;-140.72;100.00;53210.72;5063190;28;20021;-66
2022/11/22 00:22:49;;;;;;;4.72;3.17;;;;;;;-140.72;100.00;53206.66;5060602;28;20059;-67
2022/11/22 00:25:20;;;;;;;4.88;3.28;;;;;;;-140.72;100.00;53210.72;5064569;28;20288;-66
2022/11/22 00:27:45;;;;;;;7.10;3.60;;;;;;;-140.72;100.00;53204.63;5067494;28;20154;-67
2022/11/22 00:30:11;;;;;;;5.25;3.30;;;;;;;-140.72;100.00;53222.88;5052454;28;20508;-66
2022/11/22 00:32:36;;;;;;;6.25;3.40;;;;;;;-140.72;100.00;53247.25;5064400;28;20054;-66
2022/11/22 00:35:02;;;;;;;5.00;3.30;;;;;;;-140.72;100.00;53194.47;5061401;28;20024;-69
2022/11/22 00:37:27;;;;;;;5.97;3.22;;;;;;;-140.72;100.00;53198.53;5065834;28;20036;-68
2022/11/22 00:39:53;;;;;;;3.72;2.75;;;;;;;-140.72;100.00;53259.41;5068937;28;20039;-66
2022/11/22 00:42:21;;;;;;;6.03;3.70;;;;;;;-140.72;100.00;53257.38;5067759;28;20059;-66
2022/11/22 00:44:46;;;;;;;5.25;2.97;;;;;;;-140.72;100.00;53251.31;5049951;28;20132;-67
2022/11/22 00:47:12;;;;;;;6.25;3.10;;;;;;;-140.72;100.00;53214.78;5064920;28;20112;-66
2022/11/22 00:49:37;;;;;;;11.27;3.30;;;;;;;-140.72;100.00;53214.78;5058916;28;20024;-66
2022/11/22 00:52:02;;;;;;;7.90;3.47;;;;;;;-140.72;100.00;53194.47;5067305;28;20021;-68
2022/11/22 00:54:28;;;;;;;9.27;3.33;;;;;;;-140.72;100.00;53251.31;5069467;28;20036;-68
2022/11/22 00:56:53;;;;;;;5.03;3.78;;;;;;;-140.72;100.00;53231.00;5065450;28;20052;-66
2022/11/22 00:59:18;;;;;;;6.90;2.85;;;;;;;-140.72;100.00;53237.09;5050935;28;20029;-66
2022/11/22 01:01:47;;;;;;;5.53;3.35;;;;;;;-140.72;100.00;53226.94;5061565;28;20048;-68
2022/11/22 01:04:19;;;;;;;6.28;3.58;;;;;;;-140.72;100.00;53216.78;5082127;28;20064;-67
2022/11/22 01:06:45;;;;;;;3.55;2.95;;;;;;;-140.72;100.00;53235.06;5054287;28;20505;-66
2022/11/22 01:09:22;;;;;;;4.97;2.67;;;;;;;-140.72;100.00;53200.56;5083504;28;20166;-66
2022/11/22 01:11:48;;;;;;;4.88;2.90;;;;;;;-140.72;100.00;53235.06;5061641;28;20029;-66
2022/11/22 01:14:14;;;;;;;8.73;2.28;;;;;;;-140.72;100.00;53245.22;5066216;28;20376;-65
2022/11/22 01:16:40;;;;;;;4.88;2.25;;;;;;;-140.72;100.00;53253.31;5066743;28;20045;-67
2022/11/22 01:19:06;;;;;;;4.15;2.65;;;;;;;-140.72;100.00;53257.38;5073165;28;20075;-67
2022/11/22 01:21:32;;;;;;;3.17;1.98;;;;;;;-140.72;100.00;53259.41;5063376;28;20032;-67
2022/11/22 01:23:57;;;;;;;4.25;2.67;;;;;;;-140.72;100.00;53231.00;5065931;28;20017;-67
2022/11/22 01:26:22;;;;;;;2.53;1.70;;;;;;;-140.72;100.00;53206.66;5066670;28;20039;-67
2022/11/22 01:28:48;;;;;;;7.90;2.63;;;;;;;-140.72;100.00;53255.34;5069574;28;20127;-69
2022/11/22 01:31:13;;;;;;;6.53;2.85;;;;;;;-140.72;100.00;53249.28;5069007;28;20052;-68
2022/11/22 01:33:39;;;;;;;3.42;2.20;;;;;;;-140.72;100.00;53237.09;5063935;28;20175;-67
2022/11/22 01:36:07;;;;;;;8.55;2.88;;;;;;;-140.72;100.00;53245.22;5055290;28;20025;-66
2022/11/22 01:38:32;;;;;;;4.68;2.10;;;;;;;-140.72;100.00;53241.16;5065192;28;20036;-69
2022/11/22 01:40:58;;;;;;;3.25;1.95;;;;;;;-140.72;100.00;53184.31;5071929;28;20074;-66
2022/11/22 01:43:25;;;;;;;7.60;2.38;;;;;;;-140.72;100.00;53235.06;5072308;28;20060;-67
2022/11/22 01:45:56;;;;;;;4.85;2.05;;;;;;;-140.72;100.00;53231.00;5072735;28;20078;-67
2022/11/22 01:48:49;;;;;;;2.88;1.60;;;;;;;-140.72;100.00;53231.00;5080704;28;20035;-66
2022/11/22 01:51:26;;;;;;;3.97;1.77;;;;;;;-140.72;100.00;53200.56;5052675;28;20041;-66
2022/11/22 01:53:54;;;;;;;3.22;1.95;;;;;;;-140.72;100.00;53235.06;5064760;28;20116;-68
2022/11/22 01:56:21;;;;;;;9.02;2.10;;;;;;;-140.72;100.00;53255.34;5066280;28;20394;-67
2022/11/22 01:58:49;;;;;;;2.78;1.58;;;;;;;-140.72;100.00;53241.16;5059048;28;20081;-68
2022/11/22 02:01:15;;;;;;;3.10;1.45;;;;;;;-140.72;100.00;53231.00;5053631;28;20044;-66
2022/11/22 02:03:45;;;;;;;3.65;1.88;;;;;;;-140.72;100.00;53237.09;5069138;28;20024;-67
2022/11/22 02:06:11;;;;;;;5.32;1.80;;;;;;;-140.72;100.00;53263.47;5070916;28;20421;-67
2022/11/22 02:08:50;;;;;;;4.50;1.50;;;;;;;-140.72;100.00;53233.03;5072241;28;20028;-66
2022/11/22 02:11:17;;;;;;;5.07;2.15;;;;;;;-140.72;100.00;53255.34;5050544;28;20032;-67
2022/11/22 02:13:44;;;;;;;7.57;2.08;;;;;;;-140.72;100.00;53251.31;5061229;28;20029;-66
2022/11/22 02:16:10;;;;;;;4.18;1.23;;;;;;;-140.72;100.00;53228.97;5064653;28;20028;-66
2022/11/22 02:18:36;;;;;;;6.63;2.25;;;;;;;-140.72;100.00;53239.13;5052078;28;20032;-66
2022/11/22 02:21:03;;;;;;;12.98;2.92;;;;;;;-140.72;100.00;53261.44;5052168;28;20499;-66
2022/11/22 02:23:54;;;;;;;2.00;1.13;;;;;;;-140.72;100.00;53291.88;5070745;28;20091;-66
2022/11/22 02:26:19;;;;;;;2.75;1.55;;;;;;;-140.72;100.00;53271.59;5054912;28;20024;-67
2022/11/22 02:28:51;;;;;;;3.60;1.20;;;;;;;-140.72;100.00;53228.97;5058368;28;20031;-66
2022/11/22 02:31:51;;;;;;;3.17;1.33;;;;;;;-140.72;100.00;53226.94;5060929;28;20037;-66
2022/11/22 02:34:17;;;;;;;4.15;1.52;;;;;;;-140.72;100.00;53283.78;5039896;28;20067;-67
2022/11/22 02:36:49;;;;;;;11.02;2.67;;;;;;;-140.72;100.00;53310.16;5051693;28;20060;-67
2022/11/22 02:39:24;;;;;;;3.20;1.63;;;;;;;-140.72;100.00;53247.25;5051476;28;20124;-67
2022/11/22 02:41:50;;;;;;;9.18;1.23;;;;;;;-140.72;100.00;53251.31;5063033;28;20039;-66
2022/11/22 02:44:17;;;;;;;7.28;1.10;;;;;;;-140.72;100.00;53241.16;5068904;28;20100;-66
2022/11/22 02:46:52;;;;;;;5.35;0.93;;;;;;;-140.72;100.00;53277.69;5072683;28;20108;-66
2022/11/22 02:49:23;;;;;;;1.85;0.95;;;;;;;-140.72;100.00;53251.31;5071358;28;20035;-67
2022/11/22 02:51:50;;;;;;;2.25;1.52;;;;;;;-140.72;100.00;53220.84;5072457;28;20121;-67
2022/11/22 02:54:18;;;;;;;3.40;0.98;;;;;;;-140.72;100.00;53228.97;5051503;28;20032;-67
2022/11/22 02:56:43;;;;;;;5.13;2.25;;;;;;;-140.72;100.00;53235.06;5064654;28;20068;-67
2022/11/22 02:59:09;;;;;;;4.47;1.52;;;;;;;-140.72;100.00;53247.25;5052792;28;20312;-66
2022/11/22 03:01:35;;;;;;;3.72;1.05;;;;;;;-140.72;100.00;53267.53;5068542;28;20095;-66
2022/11/22 03:04:00;;;;;;;1.05;0.82;;;;;;;-140.72;100.00;53200.56;5072063;28;20033;-67
2022/11/22 03:06:26;;;;;;;1.42;0.77;;;;;;;-140.72;100.00;53308.13;5077214;28;20029;-67
2022/11/22 03:08:51;;;;;;;5.47;1.60;;;;;;;-140.72;100.00;53231.00;5076809;28;20482;-66
2022/11/22 03:11:16;;;;;;;5.38;0.98;;;;;;;-140.72;100.00;53261.44;5071288;28;20029;-67
2022/11/22 03:13:42;;;;;;;7.63;1.13;;;;;;;-140.72;100.00;53263.47;5055152;28;20024;-66
2022/11/22 03:16:07;;;;;;;3.30;1.58;;;;;;;-140.72;100.00;53255.34;5074574;28;20041;-66
2022/11/22 03:18:36;;;;;;;9.57;1.45;;;;;;;-140.72;100.00;53259.41;5065474;28;20423;-67
2022/11/22 03:21:02;;;;;;;4.47;1.08;;;;;;;-140.72;100.00;53253.31;5077925;28;20056;-67
2022/11/22 03:23:28;;;;;;;5.35;0.73;;;;;;;-140.72;100.00;53241.16;5070896;28;20032;-68
2022/11/22 03:25:54;;;;;;;5.20;1.73;;;;;;;-140.72;100.00;53261.44;5051096;28;20103;-68
2022/11/22 03:28:22;;;;;;;3.28;1.17;;;;;;;-140.72;100.00;53206.66;5049158;28;20470;-67
2022/11/22 03:30:47;;;;;;;4.65;1.10;;;;;;;-140.72;100.00;53259.41;5057137;28;20162;-67
2022/11/22 03:33:13;;;;;;;6.10;1.48;;;;;;;-140.72;100.00;53237.09;5067676;28;20111;-66
2022/11/22 03:35:38;;;;;;;15.02;3.00;;;;;;;-140.72;100.00;53259.41;5067684;28;20040;-67
2022/11/22 03:38:05;;;;;;;9.00;1.77;;;;;;;-140.72;100.00;53259.41;5065856;28;20087;-68
2022/11/22 03:40:31;;;;;;;2.75;0.95;;;;;;;-140.72;100.00;53249.28;5070023;28;20078;-67
2022/11/22 03:43:00;;;;;;;2.45;1.10;;;;;;;-140.72;100.00;53259.41;5078961;28;20048;-67
2022/11/22 03:45:27;;;;;;;2.75;0.98;;;;;;;-140.72;100.00;53265.50;5075577;28;20032;-67
2022/11/22 03:47:55;;;;;;;2.85;1.02;;;;;;;-140.72;100.00;53255.34;5082947;28;20055;-66
2022/11/22 03:50:20;;;;;;;6.60;1.88;;;;;;;-140.72;100.00;53239.13;5053090;28;20035;-67
2022/11/22 03:52:46;;;;;;;1.55;0.75;;;;;;;-140.72;100.00;53239.13;5070824;28;20036;-69
2022/11/22 03:55:11;;;;;;;10.05;1.52;;;;;;;-140.72;100.00;53273.63;5053496;28;20025;-67
2022/11/22 03:57:36;;;;;;;5.05;1.20;;;;;;;-140.72;100.00;53255.34;5060548;28;20025;-67
2022/11/22 04:00:04;;;;;;;4.55;1.02;;;;;;;-140.72;100.00;53271.59;5058475;28;20024;-67
2022/11/22 04:02:29;;;;;;;2.17;1.00;;;;;;;-140.72;100.00;53214.78;5070518;28;20033;-68
2022/11/22 04:04:55;;;;;;;10.30;2.42;;;;;;;-140.72;100.00;53212.75;5055317;28;20027;-67
2022/11/22 04:07:21;;;;;;;7.38;1.27;;;;;;;-140.72;100.00;53222.88;5060975;28;20413;-66
2022/11/22 04:09:49;;;;;;;5.13;1.30;;;;;;;-140.72;100.00;53243.19;5061213;28;20021;-69
2022/11/22 04:12:15;;;;;;;2.72;0.80;;;;;;;-140.72;100.00;53259.41;5049392;28;20528;-68
2022/11/22 04:17:39;;;;;;;2.55;0.85;;;;;;;-140.72;100.00;53247.25;5067264;28;20047;-67
2022/11/22 04:23:06;;;;;;;2.58;0.98;;;;;;;-140.72;100.00;53275.66;5050048;28;20040;-66
2022/11/22 04:25:33;;;;;;;2.42;0.82;;;;;;;-140.72;100.00;53239.13;5049767;28;20529;-67
2022/11/22 04:27:59;;;;;;;5.75;1.25;;;;;;;-140.72;100.00;53265.50;5050533;28;20032;-67
2022/11/22 04:33:12;;;;;;;5.10;1.90;;;;;;;-140.72;100.00;53300.00;5046492;28;20025;-66
2022/11/22 04:35:38;;;;;;;12.68;1.60;;;;;;;-140.72;100.00;53257.38;5063442;28;20043;-68
2022/11/22 04:38:04;;;;;;;5.43;0.65;;;;;;;-140.72;100.00;53263.47;5071415;28;20390;-66
2022/11/22 04:40:31;;;;;;;3.85;0.82;;;;;;;-140.72;100.00;53257.38;5069077;28;20069;-68
2022/11/22 04:45:41;;;;;;;5.95;0.98;;;;;;;-140.72;100.00;53320.31;5062985;28;20102;-67
2022/11/22 04:48:06;;;;;;;4.43;1.63;;;;;;;-140.72;100.00;53308.13;5082555;28;20429;-66
2022/11/22 04:53:17;;;;;;;8.20;1.40;;;;;;;-140.72;100.00;53283.78;5062497;28;20043;-67
2022/11/22 04:55:43;;;;;;;5.70;1.73;;;;;;;-140.72;100.00;53265.50;5062711;28;20110;-67
2022/11/22 04:58:09;;;;;;;6.53;1.13;;;;;;;-140.72;100.00;53265.50;5069601;28;20029;-67
2022/11/22 05:00:35;;;;;;;4.88;1.13;;;;;;;-140.72;100.00;53271.59;5055615;28;20036;-68
2022/11/22 05:03:01;;;;;;;2.97;1.75;;;;;;;-140.72;100.00;53257.38;5055634;28;20036;-68
2022/11/22 05:05:26;;;;;;;8.40;1.52;;;;;;;-140.72;100.00;53265.50;5060575;28;20021;-67
2022/11/22 05:07:55;;;;;;;3.03;1.25;;;;;;;-140.72;100.00;53304.06;5056725;28;20024;-67
2022/11/22 05:10:21;;;;;;;3.83;1.25;;;;;;;-140.72;100.00;53291.88;5057855;28;20470;-68
2022/11/22 05:12:46;;;;;;;3.45;0.95;;;;;;;-140.72;100.00;53275.66;5056428;28;20053;-67
2022/11/22 05:15:12;;;;;;;13.75;1.30;;;;;;;-140.72;100.00;53267.53;5066487;28;20504;-67
2022/11/22 05:17:38;;;;;;;6.05;1.98;;;;;;;-140.72;100.00;53245.22;5070165;28;20016;-68
2022/11/22 05:20:07;;;;;;;5.35;1.40;;;;;;;-140.72;100.00;53308.13;5069681;28;20024;-67
2022/11/22 05:25:34;;;;;;;9.77;1.73;;;;;;;-140.72;100.00;53247.25;5046877;28;20443;-67
2022/11/22 05:28:00;;;;;;;3.63;0.90;;;;;;;-140.72;100.00;53239.13;5059856;28;20056;-67
2022/11/22 05:30:25;;;;;;;3.03;1.30;;;;;;;-140.72;100.00;53263.47;5059461;28;20020;-67
2022/11/22 05:32:51;;;;;;;14.18;2.10;;;;;;;-140.72;100.00;53263.47;5062607;28;20031;-67
2022/11/22 05:35:16;;;;;;;6.03;1.85;;;;;;;-140.72;100.00;53239.13;5053696;28;20115;-67
2022/11/22 05:37:41;;;;;;;7.63;1.67;;;;;;;-140.72;100.00;53190.41;5055522;28;20051;-67
2022/11/22 05:40:07;;;;;;;5.60;1.40;;;;;;;-140.72;100.00;53249.28;5063122;28;20082;-68
2022/11/22 05:42:33;;;;;;;4.95;1.83;;;;;;;-140.72;100.00;53208.69;5063903;28;20047;-68
2022/11/22 05:44:58;;;;;;;9.15;2.00;;;;;;;-140.72;100.00;53253.31;5064030;28;20471;-67
2022/11/22 05:47:23;;;;;;;4.03;1.25;;;;;;;-140.72;100.00;53267.53;5064499;28;20363;-67
2022/11/22 05:49:49;;;;;;;6.95;1.85;;;;;;;-140.72;100.00;53251.31;5065987;28;20501;-66
2022/11/22 05:52:14;;;;;;;5.65;1.60;;;;;;;-140.72;100.00;53233.03;5065305;28;20039;-67
2022/11/22 05:54:40;;;;;;;6.20;1.38;;;;;;;-140.72;100.00;53251.31;5054389;28;20124;-68
2022/11/22 05:57:08;;;;;;;3.75;1.92;;;;;;;-140.72;100.00;53279.72;5056496;28;20382;-68
2022/11/22 05:59:33;;;;;;;9.90;2.08;;;;;;;-140.72;100.00;53259.41;5065512;28;20041;-68
2022/11/22 06:01:59;;;;;;;6.18;1.88;;;;;;;-140.72;100.00;53259.41;5065085;28;20032;-67
2022/11/22 06:04:24;;;;;;;10.20;1.92;;;;;;;-140.72;100.00;53255.34;5083126;28;20025;-66
2022/11/22 06:06:50;;;;;;;2.22;1.40;;;;;;;-140.72;100.00;53269.56;5064840;28;20024;-67
2022/11/22 06:09:15;;;;;;;2.85;1.70;;;;;;;-140.72;100.00;53267.53;5059233;28;20041;-67
2022/11/22 06:11:40;;;;;;;2.85;1.55;;;;;;;-140.72;100.00;53279.72;5080609;28;20028;-67
2022/11/22 06:14:07;;;;;;;5.72;1.77;;;;;;;-140.72;100.00;53265.50;5052886;28;20025;-69
2022/11/22 06:16:35;;;;;;;12.93;2.20;;;;;;;-140.72;100.00;53243.19;5064640;28;20035;-67
2022/11/22 06:19:01;;;;;;;3.30;1.55;;;;;;;-140.72;100.00;53204.63;5059151;28;20027;-68
2022/11/22 06:21:27;;;;;;;4.50;1.95;;;;;;;-140.72;100.00;53184.31;5071763;28;20029;-67
2022/11/22 06:23:54;;;;;;;8.10;2.13;;;;;;;-140.72;100.00;53245.22;5064702;28;20040;-68
2022/11/22 06:26:21;;;;;;;2.40;1.38;;;;;;;-140.72;100.00;53241.16;5053435;28;20033;-66
2022/11/22 06:28:47;;;;;;;5.78;2.30;;;;;;;-140.72;100.00;53259.41;5060140;28;20056;-67
2022/11/22 06:31:17;;;;;;;2.50;1.67;;;;;;;-140.72;100.00;53263.47;5059802;28;20029;-67
2022/11/22 06:33:43;;;;;;;3.88;1.50;;;;;;;-140.72;100.00;53216.78;5064164;28;20076;-67
2022/11/22 06:36:10;;;;;;;3.03;1.60;;;;;;;-140.72;100.00;53271.59;5061355;28;20055;-67
2022/11/22 06:38:37;;;;;;;3.88;2.08;;;;;;;-140.72;100.00;53226.94;5069317;28;20458;-67
2022/11/22 06:41:04;;;;;;;4.63;1.20;;;;;;;-140.72;100.00;53271.59;5058990;28;20515;-68
2022/11/22 06:43:32;;;;;;;3.75;1.40;;;;;;;-140.72;100.00;53162.00;5064726;28;20028;-67
2022/11/22 06:45:59;;;;;;;6.10;2.00;;;;;;;-140.72;100.00;53275.66;5051399;28;20105;-67
2022/11/22 06:48:37;;;;;;;2.67;1.80;;;;;;;-140.72;100.00;53237.09;5071857;28;20036;-67
2022/11/22 06:51:14;;;;;;;9.30;1.83;;;;;;;-140.72;100.00;53247.25;5058043;28;20029;-68
2022/11/22 06:53:40;;;;;;;4.20;2.40;;;;;;;-140.72;100.00;53233.03;5070781;28;20489;-67
2022/11/22 06:56:27;;;;;;;4.85;1.73;;;;;;;-140.72;100.00;53241.16;5071351;28;20103;-68
2022/11/22 06:58:53;;;;;;;1.65;1.30;;;;;;;-140.72;100.00;53265.50;5056639;28;20029;-67
2022/11/22 07:01:20;;;;;;;5.22;1.20;;;;;;;-140.72;100.00;53241.16;5068986;28;20116;-68
2022/11/22 07:03:49;;;;;;;3.50;1.80;;;;;;;-140.72;100.00;53241.16;5052385;28;20364;-67
2022/11/22 07:06:17;;;;;;;4.70;2.28;;;;;;;-140.72;100.00;53239.13;5065533;28;20032;-67
2022/11/22 07:08:43;;;;;;;6.18;2.20;;;;;;;-140.72;100.00;53273.63;5073146;28;20033;-67
2022/11/22 07:11:18;;;;;;;15.07;2.75;;;;;;;-140.72;100.00;53243.19;5062249;28;20025;-67
2022/11/22 07:13:44;;;;;;;6.57;2.53;;;;;;;-140.72;100.00;53267.53;5054372;28;20032;-69
2022/11/22 07:16:12;;;;;;;5.18;2.55;;;;;;;-140.72;100.00;53255.34;5061004;28;20040;-68
2022/11/22 07:18:38;;;;;;;3.28;2.22;;;;;;;-140.72;100.00;53222.88;5070534;28;20033;-67
2022/11/22 07:21:09;;;;;;;7.15;2.63;;;;;;;-140.72;100.00;53263.47;5066341;28;20036;-67
2022/11/22 07:23:42;;;;;;;4.25;2.50;;;;;;;-140.72;100.00;53249.28;5056285;28;20024;-69
2022/11/22 07:26:09;;;;;;;10.93;3.50;;;;;;;-140.72;100.00;53257.38;5070944;28;20508;-68
2022/11/22 07:28:41;;;;;;;3.72;2.20;;;;;;;-140.72;100.00;53214.78;5054712;28;20028;-68
2022/11/22 07:31:08;;;;;;;3.95;1.90;;;;;;;-140.72;100.00;53271.59;5052135;28;20382;-68
2022/11/22 07:33:34;;;;;;;3.50;1.90;;;;;;;-140.72;100.00;53235.06;5061829;28;20025;-69
2022/11/22 07:36:08;;;;;;;6.85;2.45;;;;;;;-140.72;100.00;53257.38;5052582;28;20033;-67
2022/11/22 07:38:34;;;;;;;4.60;2.28;;;;;;;-140.72;100.00;53255.34;5063737;28;20398;-68
2022/11/22 07:41:00;;;;;;;6.00;2.40;;;;;;;-140.72;100.00;53249.28;5049624;28;20043;-68
2022/11/22 07:43:26;;;;;;;1.98;1.45;;;;;;;-140.72;100.00;53198.53;5050081;28;20028;-67
2022/11/22 07:46:00;;;;;;;6.38;1.83;;;;;;;-140.72;100.00;53279.72;5062939;28;20033;-69
2022/11/22 07:48:25;;;;;;;7.63;2.03;;;;;;;-140.72;100.00;53224.91;5049430;28;20025;-69
2022/11/22 07:50:51;;;;;;;3.70;2.10;;;;;;;-140.72;100.00;53231.00;5064164;28;20405;-68
2022/11/22 07:53:19;;;;;;;3.00;2.10;;;;;;;-140.72;100.00;53235.06;5070405;28;20097;-68
2022/11/22 07:55:44;;;;;;;3.35;1.67;;;;;;;-140.72;100.00;53241.16;5068217;28;20111;-68
2022/11/22 07:58:10;;;;;;;8.85;2.40;;;;;;;-140.72;100.00;53247.25;5050864;28;20111;-68
2022/11/22 08:00:41;;;;;;;3.67;1.63;;;;;;;-140.72;100.00;53226.94;5050515;28;20356;-68
2022/11/22 08:03:07;;;;;;;7.18;2.05;;;;;;;-140.72;100.00;53243.19;5058908;28;20055;-68
2022/11/22 08:05:33;;;;;;;2.90;1.70;;;;;;;-140.72;100.00;53206.66;5056753;28;20040;-68
2022/11/22 08:07:58;;;;;;;2.45;2.00;;;;;;;-140.72;100.00;53210.72;5060230;28;20490;-68
2022/11/22 08:10:23;;;;;;;3.58;1.40;;;;;;;-140.72;100.00;53210.72;5064561;28;20040;-69
2022/11/22 08:12:49;;;;;;;2.45;1.65;;;;;;;-140.72;100.00;53263.47;5060572;28;20021;-68
2022/11/22 08:15:16;;;;;;;4.28;1.52;;;;;;;-140.72;100.00;53206.66;5066633;28;20048;-69
2022/11/22 08:17:41;;;;;;;3.08;1.65;;;;;;;-140.72;100.00;53245.22;5068902;28;20490;-68
2022/11/22 08:20:08;;;;;;;4.80;1.58;;;;;;;-140.72;100.00;53210.72;5052403;28;20479;-68
2022/11/22 08:22:38;;;;;;;2.35;1.67;;;;;;;-140.72;100.00;53263.47;5060905;28;20044;-68
2022/11/22 08:25:04;;;;;;;9.95;1.33;;;;;;;-140.72;100.00;53214.78;5064262;28;20048;-68
2022/11/22 08:27:29;;;;;;;5.15;1.90;;;;;;;-140.72;100.00;53245.22;5061914;28;20149;-68
2022/11/22 08:29:54;;;;;;;3.15;1.70;;;;;;;-140.72;100.00;53206.66;5058115;28;20068;-68
2022/11/22 08:32:20;;;;;;;2.00;1.45;;;;;;;-140.72;100.00;53200.56;5058631;28;20025;-68
2022/11/22 08:34:45;;;;;;;2.95;1.92;;;;;;;-140.72;100.00;53224.91;5063365;28;20029;-69
2022/11/22 08:37:10;;;;;;;3.20;1.70;;;;;;;-140.72;100.00;53241.16;5050352;28;20132;-68
2022/11/22 08:39:37;;;;;;;3.80;1.90;;;;;;;-140.72;100.00;53208.69;5062811;28;20041;-68
2022/11/22 08:42:02;;;;;;;3.60;1.90;;;;;;;-140.72;100.00;53190.41;5057385;28;20037;-68
2022/11/22 08:44:28;;;;;;;11.48;2.83;;;;;;;-140.72;100.00;53208.69;5056198;28;20056;-68
2022/11/22 08:46:53;;;;;;;4.57;1.88;;;;;;;-140.72;100.00;53222.88;5061656;28;20039;-68
2022/11/22 08:49:21;;;;;;;3.55;1.70;;;;;;;-140.72;100.00;53233.03;5064515;28;20031;-69
2022/11/22 08:51:46;;;;;;;2.63;1.42;;;;;;;-140.72;100.00;53210.72;5060572;28;20033;-68
2022/11/22 08:54:15;;;;;;;4.25;1.80;;;;;;;-140.72;100.00;53228.97;5051946;28;20025;-68
2022/11/22 08:56:41;;;;;;;3.90;1.85;;;;;;;-140.72;100.00;53231.00;5060756;28;20036;-68
2022/11/22 08:59:06;;;;;;;3.85;2.25;;;;;;;-140.72;100.00;53206.66;5062123;28;20420;-69
2022/11/22 09:01:32;;;;;;;2.03;1.42;;;;;;;-140.72;100.00;53265.50;5049950;28;20021;-69
2022/11/22 09:03:57;;;;;;;8.73;2.50;;;;;;;-140.72;100.00;53216.78;5066103;28;20035;-69
2022/11/22 09:06:23;;;;;;;4.82;2.55;;;;;;;-140.72;100.00;53210.72;5069432;28;20031;-68
2022/11/22 09:08:48;;;;;;;3.08;1.73;;;;;;;-140.72;100.00;53210.72;5068644;28;20027;-68
2022/11/22 09:11:16;;;;;;;4.45;1.67;;;;;;;-140.72;100.00;53224.91;5069023;28;20032;-68
2022/11/22 09:13:42;;;;;;;5.03;1.58;;;;;;;-140.72;100.00;53218.81;5055477;28;20021;-68
2022/11/22 09:16:10;;;;;;;4.15;1.98;;;;;;;-140.72;100.00;53188.38;5069728;28;20394;-68
2022/11/22 09:18:36;;;;;;;1.65;1.10;;;;;;;-140.72;100.00;53188.38;5067256;28;20039;-68
2022/11/22 09:21:04;;;;;;;2.47;1.58;;;;;;;-140.72;100.00;53190.41;5058998;28;20029;-67
2022/11/22 09:23:30;;;;;;;3.10;1.63;;;;;;;-140.72;100.00;53226.94;5053514;28;20052;-68
2022/11/22 09:26:04;;;;;;;3.55;1.80;;;;;;;-140.72;100.00;53174.19;5064995;28;20056;-69
2022/11/22 09:28:29;;;;;;;4.20;1.83;;;;;;;-140.72;100.00;53226.94;5058336;28;20017;-69
2022/11/22 09:31:15;;;;;;;1.65;1.30;;;;;;;-140.72;100.00;53222.88;5059832;28;20097;-68
2022/11/22 09:33:45;;;;;;;10.93;2.05;;;;;;;-140.72;100.00;53204.63;5064212;28;20057;-68
2022/11/22 09:36:16;;;;;;;7.80;1.70;;;;;;;-140.72;100.00;53218.81;5068895;28;20154;-69
2022/11/22 09:38:42;;;;;;;3.08;1.75;;;;;;;-140.72;100.00;53218.81;5071422;28;20048;-68
2022/11/22 09:41:17;;;;;;;3.78;2.25;;;;;;;-140.72;100.00;53224.91;5067135;28;20040;-69
2022/11/22 09:43:57;;;;;;;4.93;1.33;;;;;;;-140.72;100.00;53249.28;5052885;28;20056;-69
2022/11/22 09:46:53;;;;;;;5.93;1.77;;;;;;;-140.72;100.00;53204.63;5052814;28;20482;-68
2022/11/22 09:49:27;;;;;;;1.58;1.05;;;;;;;-140.72;100.00;53226.94;5066583;28;20032;-69
2022/11/22 09:52:02;;;;;;;13.45;1.75;;;;;;;-140.72;100.00;53224.91;5072653;28;20085;-68
2022/11/22 09:54:44;;;;;;;4.30;2.20;;;;;;;-140.72;100.00;53226.94;5068350;28;20032;-69
2022/11/22 09:57:17;;;;;;;1.70;1.40;;;;;;;-140.72;100.00;53247.25;5052760;28;20065;-68
2022/11/22 09:59:49;;;;;;;2.83;1.63;;;;;;;-140.72;100.00;53245.22;5065079;28;20033;-69
2022/11/22 10:02:22;;;;;;;3.22;1.38;;;;;;;-140.72;100.00;53214.78;5052147;28;20207;-69
2022/11/22 10:05:01;;;;;;;4.20;1.70;;;;;;;-140.72;100.00;53210.72;5051540;28;20091;-69
2022/11/22 10:07:53;;;;;;;4.03;1.42;;;;;;;-140.72;100.00;53222.88;5057291;28;20031;-69
2022/11/22 10:10:27;;;;;;;3.30;1.48;;;;;;;-140.72;100.00;53192.44;5053916;28;20052;-70
2022/11/22 10:13:23;;;;;;;2.22;1.23;;;;;;;-140.72;100.00;53196.50;5070684;28;20111;-69
2022/11/22 10:16:08;;;;;;;7.88;2.05;;;;;;;-140.72;100.00;53188.38;5054220;28;20032;-68
2022/11/22 10:18:52;;;;;;;7.28;1.42;;;;;;;-140.72;100.00;53170.13;5066077;28;20036;-68
2022/11/22 10:21:23;;;;;;;2.08;1.52;;;;;;;-140.72;100.00;53186.34;5059365;28;20434;-68
2022/11/22 10:23:49;;;;;;;8.15;1.48;;;;;;;-140.72;100.00;53192.44;5064783;28;20128;-68
2022/11/22 10:26:20;;;;;;;3.30;1.45;;;;;;;-140.72;100.00;53226.94;5068532;28;20039;-68
2022/11/22 10:28:52;;;;;;;3.78;1.40;;;;;;;-140.72;100.00;53182.28;5068928;28;20033;-68
2022/11/22 10:31:24;;;;;;;2.20;1.45;;;;;;;-140.72;100.00;53202.59;5054102;28;20120;-68
2022/11/22 10:34:33;;;;;;;2.70;1.10;;;;;;;-140.72;100.00;53206.66;5057887;28;20482;-68
2022/11/22 10:37:34;;;;;;;8.60;1.25;;;;;;;-140.72;100.00;53194.47;5060550;28;20048;-68
2022/11/22 10:40:02;;;;;;;1.15;0.77;;;;;;;-140.72;100.00;53174.19;5061760;28;20041;-68
2022/11/22 10:43:09;;;;;;;5.03;1.25;;;;;;;-140.72;100.00;53184.31;5066312;28;20028;-68
2022/11/22 10:45:46;;;;;;;7.38;1.75;;;;;;;-140.72;100.00;53212.75;5051180;28;20487;-68
2022/11/22 10:48:20;;;;;;;4.53;2.40;;;;;;;-140.72;100.00;53174.19;5064310;28;20067;-68
2022/11/22 10:51:14;;;;;;;4.20;1.50;;;;;;;-140.72;100.00;53190.41;5050757;28;20056;-68
2022/11/22 10:53:57;;;;;;;1.13;0.93;;;;;;;-140.72;100.00;53216.78;5056561;28;20025;-68
2022/11/22 10:56:33;;;;;;;3.15;1.27;;;;;;;-140.72;100.00;53196.50;5044582;28;20351;-68
2022/11/22 11:00:01;;;;;;;1.30;0.77;;;;;;;-140.72;100.00;53202.59;5059311;28;20094;-68
2022/11/22 11:02:48;;;;;;;2.35;0.90;;;;;;;-140.72;100.00;53166.06;5059832;28;20410;-68
2022/11/22 11:05:20;;;;;;;2.25;1.23;;;;;;;-140.72;100.00;53214.78;5061413;28;20028;-68
2022/11/22 11:07:49;;;;;;;2.35;1.33;;;;;;;-140.72;100.00;53159.97;5063878;28;20032;-68
2022/11/22 11:10:25;;;;;;;0.90;0.80;;;;;;;-140.72;100.00;53194.47;5065388;28;20355;-67
2022/11/22 11:12:55;;;;;;;4.35;1.08;;;;;;;-140.72;100.00;53202.59;5068000;28;20029;-69
2022/11/22 11:15:46;;;;;;;1.00;0.68;;;;;;;-140.72;100.00;53164.03;5065339;28;20047;-68
2022/11/22 11:18:39;;;;;;;1.17;0.77;;;;;;;-140.72;100.00;53145.75;5060607;28;20122;-68
2022/11/22 11:21:06;;;;;;;1.83;0.95;;;;;;;-140.72;100.00;53194.47;5061527;28;20028;-68
2022/11/22 11:23:33;;;;;;;1.30;0.90;;;;;;;-140.72;100.00;53180.25;5054223;28;20029;-68
2022/11/22 11:26:18;;;;;;;2.85;1.50;;;;;;;-140.72;100.00;53198.53;5052638;28;20066;-68
2022/11/22 11:28:44;;;;;;;2.20;0.98;;;;;;;-140.72;100.00;53194.47;5052844;28;20545;-68
2022/11/22 11:31:12;;;;;;;5.50;1.33;;;;;;;-140.72;100.00;53218.81;5052656;28;20029;-68
2022/11/22 11:33:40;;;;;;;8.65;1.98;;;;;;;-140.72;100.00;53174.19;5068923;28;20227;-68
2022/11/22 11:36:09;;;;;;;3.30;0.80;;;;;;;-140.72;100.00;53168.09;5056980;28;20110;-68